Weather at Kimberley Airport

Public forecast

Using degrees Celsius for public forecast. Weather courtesy of forecast.io.

Current aviation weather report (METAR) for Kimberley Airport

Report is more than 6 hours old.

2022/11/14 15:00 (retrieved 2 years ago)

FAKM 141500Z 36004KT CAVOK 28/06 Q1019

Closest aviation forecast (TAF) to Kimberley Airport

Forecast is more than 12 hours old.

Closest forecast is Pierre Van Ryneveld Airport, 186.3 nm (345.1 km) W.

2023/02/22 18:00 (retrieved 1 year ago)

TAF FAUP 221600Z 2218/2318 VRB03KT CAVOK TX35/2313Z TN17/2303Z